sensor_id;sensor_type;location;lat;lon;timestamp;pressure;altitude;pressure_sealevel;temperature;humidity
15442;BME280;7821;48.818;9.798;2022-10-12T00:00:11;75561.81;;;-140.16;100.00
15442;BME280;7821;48.818;9.798;2022-10-12T00:02:37;75561.81;;;-140.16;100.00
15442;BME280;7821;48.818;9.798;2022-10-12T00:05:04;75577.56;;;-140.16;100.00
15442;BME280;7821;48.818;9.798;2022-10-12T00:07:30;75563.78;;;-140.16;100.00
15442;BME280;7821;48.818;9.798;2022-10-12T00:09:56;75555.88;;;-140.16;100.00
15442;BME280;7821;48.818;9.798;2022-10-12T00:12:23;75557.84;;;-140.16;100.00
15442;BME280;7821;48.818;9.798;2022-10-12T00:14:49;75569.69;;;-140.16;100.00
15442;BME280;7821;48.818;9.798;2022-10-12T00:17:16;75567.72;;;-140.16;100.00
15442;BME280;7821;48.818;9.798;2022-10-12T00:19:42;75571.66;;;-140.16;100.00
15442;BME280;7821;48.818;9.798;2022-10-12T00:22:09;75567.72;;;-140.16;100.00
15442;BME280;7821;48.818;9.798;2022-10-12T00:24:35;75577.56;;;-140.16;100.00
15442;BME280;7821;48.818;9.798;2022-10-12T00:27:04;75579.56;;;-140.16;100.00
15442;BME280;7821;48.818;9.798;2022-10-12T00:29:30;75593.34;;;-140.16;100.00
15442;BME280;7821;48.818;9.798;2022-10-12T00:31:57;75603.22;;;-140.16;100.00
15442;BME280;7821;48.818;9.798;2022-10-12T00:34:23;75597.28;;;-140.16;100.00
15442;BME280;7821;48.818;9.798;2022-10-12T00:36:49;75599.25;;;-140.16;100.00
15442;BME280;7821;48.818;9.798;2022-10-12T00:39:16;75605.19;;;-140.16;100.00
15442;BME280;7821;48.818;9.798;2022-10-12T00:41:42;75603.22;;;-140.16;100.00
15442;BME280;7821;48.818;9.798;2022-10-12T00:44:54;75615.03;;;-140.16;100.00
15442;BME280;7821;48.818;9.798;2022-10-12T00:46:55;75622.94;;;-140.16;100.00
15442;BME280;7821;48.818;9.798;2022-10-12T00:49:23;75620.97;;;-140.16;100.00
15442;BME280;7821;48.818;9.798;2022-10-12T00:51:52;75630.81;;;-140.16;100.00
15442;BME280;7821;48.818;9.798;2022-10-12T00:54:25;75642.66;;;-140.16;100.00
15442;BME280;7821;48.818;9.798;2022-10-12T00:56:54;75634.75;;;-140.16;100.00
15442;BME280;7821;48.818;9.798;2022-10-12T00:59:25;75642.66;;;-140.16;100.00
15442;BME280;7821;48.818;9.798;2022-10-12T01:01:53;75650.53;;;-140.16;100.00
15442;BME280;7821;48.818;9.798;2022-10-12T01:04:20;75654.47;;;-140.16;100.00
15442;BME280;7821;48.818;9.798;2022-10-12T01:06:48;75668.28;;;-140.16;100.00
15442;BME280;7821;48.818;9.798;2022-10-12T01:09:14;75668.28;;;-140.16;100.00
15442;BME280;7821;48.818;9.798;2022-10-12T01:11:41;75678.13;;;-140.16;100.00
15442;BME280;7821;48.818;9.798;2022-10-12T01:14:08;75684.06;;;-140.16;100.00
15442;BME280;7821;48.818;9.798;2022-10-12T01:19:04;75691.94;;;-140.16;100.00
15442;BME280;7821;48.818;9.798;2022-10-12T01:21:39;75688.00;;;-140.16;100.00
15442;BME280;7821;48.818;9.798;2022-10-12T01:29:33;75693.91;;;-140.16;100.00
15442;BME280;7821;48.818;9.798;2022-10-12T01:32:08;75695.88;;;-140.16;100.00
15442;BME280;7821;48.818;9.798;2022-10-12T01:40:06;75707.72;;;-140.16;100.00
15442;BME280;7821;48.818;9.798;2022-10-12T01:42:38;75711.66;;;-140.16;100.00
15442;BME280;7821;48.818;9.798;2022-10-12T01:45:09;75711.66;;;-140.16;100.00
15442;BME280;7821;48.818;9.798;2022-10-12T01:47:36;75713.63;;;-140.16;100.00
15442;BME280;7821;48.818;9.798;2022-10-12T01:50:05;75713.63;;;-140.16;100.00
15442;BME280;7821;48.818;9.798;2022-10-12T01:52:49;75723.50;;;-140.16;100.00
15442;BME280;7821;48.818;9.798;2022-10-12T01:58:02;75725.47;;;-140.16;100.00
15442;BME280;7821;48.818;9.798;2022-10-12T02:00:35;75729.41;;;-140.16;100.00
15442;BME280;7821;48.818;9.798;2022-10-12T02:08:14;75733.34;;;-140.16;100.00
15442;BME280;7821;48.818;9.798;2022-10-12T02:10:54;75729.41;;;-140.16;100.00
15442;BME280;7821;48.818;9.798;2022-10-12T02:13:23;75731.38;;;-140.16;100.00
15442;BME280;7821;48.818;9.798;2022-10-12T02:15:51;75721.53;;;-140.16;100.00
15442;BME280;7821;48.818;9.798;2022-10-12T02:18:18;75725.47;;;-140.16;100.00
15442;BME280;7821;48.818;9.798;2022-10-12T02:20:46;75729.41;;;-140.16;100.00
15442;BME280;7821;48.818;9.798;2022-10-12T02:23:14;75733.34;;;-140.16;100.00
15442;BME280;7821;48.818;9.798;2022-10-12T02:25:41;75745.19;;;-140.16;100.00
15442;BME280;7821;48.818;9.798;2022-10-12T02:28:09;75747.16;;;-140.16;100.00
15442;BME280;7821;48.818;9.798;2022-10-12T02:30:37;75749.13;;;-140.16;100.00
15442;BME280;7821;48.818;9.798;2022-10-12T02:33:12;75733.34;;;-140.16;100.00
15442;BME280;7821;48.818;9.798;2022-10-12T02:35:44;75739.28;;;-140.16;100.00
15442;BME280;7821;48.818;9.798;2022-10-12T02:38:14;75733.34;;;-140.16;100.00
15442;BME280;7821;48.818;9.798;2022-10-12T02:41:02;75733.34;;;-140.16;100.00
15442;BME280;7821;48.818;9.798;2022-10-12T02:45:59;75747.16;;;-140.16;100.00
15442;BME280;7821;48.818;9.798;2022-10-12T02:48:26;75749.13;;;-140.16;100.00
15442;BME280;7821;48.818;9.798;2022-10-12T02:50:54;75760.97;;;-140.16;100.00
15442;BME280;7821;48.818;9.798;2022-10-12T02:53:22;75768.84;;;-140.16;100.00
15442;BME280;7821;48.818;9.798;2022-10-12T02:55:50;75770.81;;;-140.16;100.00
15442;BME280;7821;48.818;9.798;2022-10-12T02:58:17;75776.72;;;-140.16;100.00
15442;BME280;7821;48.818;9.798;2022-10-12T03:00:44;75774.75;;;-140.16;100.00
15442;BME280;7821;48.818;9.798;2022-10-12T03:03:10;75772.78;;;-140.16;100.00
15442;BME280;7821;48.818;9.798;2022-10-12T03:05:37;75774.75;;;-140.16;100.00
15442;BME280;7821;48.818;9.798;2022-10-12T03:08:03;75772.78;;;-140.16;100.00
15442;BME280;7821;48.818;9.798;2022-10-12T03:10:30;75770.81;;;-140.16;100.00
15442;BME280;7821;48.818;9.798;2022-10-12T03:12:56;75776.72;;;-140.16;100.00
15442;BME280;7821;48.818;9.798;2022-10-12T03:15:22;75764.91;;;-140.16;100.00
15442;BME280;7821;48.818;9.798;2022-10-12T03:17:49;75772.78;;;-140.16;100.00
15442;BME280;7821;48.818;9.798;2022-10-12T03:20:15;75770.81;;;-140.16;100.00
15442;BME280;7821;48.818;9.798;2022-10-12T03:22:42;75772.78;;;-140.16;100.00
15442;BME280;7821;48.818;9.798;2022-10-12T03:25:08;75764.91;;;-140.16;100.00
15442;BME280;7821;48.818;9.798;2022-10-12T03:27:35;75766.88;;;-140.16;100.00
15442;BME280;7821;48.818;9.798;2022-10-12T03:30:02;75768.84;;;-140.16;100.00
15442;BME280;7821;48.818;9.798;2022-10-12T03:32:29;75764.91;;;-140.16;100.00
15442;BME280;7821;48.818;9.798;2022-10-12T03:34:55;75772.78;;;-140.16;100.00
15442;BME280;7821;48.818;9.798;2022-10-12T03:37:22;75776.72;;;-140.16;100.00
15442;BME280;7821;48.818;9.798;2022-10-12T03:39:49;75778.72;;;-140.16;100.00
15442;BME280;7821;48.818;9.798;2022-10-12T03:42:16;75780.69;;;-140.16;100.00
15442;BME280;7821;48.818;9.798;2022-10-12T03:44:43;75782.66;;;-140.16;100.00
15442;BME280;7821;48.818;9.798;2022-10-12T03:47:11;75784.63;;;-140.16;100.00
15442;BME280;7821;48.818;9.798;2022-10-12T03:49:38;75786.59;;;-140.16;100.00
15442;BME280;7821;48.818;9.798;2022-10-12T03:52:04;75796.44;;;-140.16;100.00
15442;BME280;7821;48.818;9.798;2022-10-12T03:54:31;75796.44;;;-140.16;100.00
15442;BME280;7821;48.818;9.798;2022-10-12T03:56:57;75790.53;;;-140.16;100.00
15442;BME280;7821;48.818;9.798;2022-10-12T03:59:24;75786.59;;;-140.16;100.00
15442;BME280;7821;48.818;9.798;2022-10-12T04:01:50;75798.44;;;-140.16;100.00
15442;BME280;7821;48.818;9.798;2022-10-12T04:04:17;75798.44;;;-140.16;100.00
15442;BME280;7821;48.818;9.798;2022-10-12T04:06:43;75792.50;;;-140.16;100.00
15442;BME280;7821;48.818;9.798;2022-10-12T04:09:10;75788.56;;;-140.16;100.00
15442;BME280;7821;48.818;9.798;2022-10-12T04:11:36;75778.72;;;-140.16;100.00
15442;BME280;7821;48.818;9.798;2022-10-12T04:14:03;75780.69;;;-140.16;100.00
15442;BME280;7821;48.818;9.798;2022-10-12T04:16:29;75794.47;;;-140.16;100.00
15442;BME280;7821;48.818;9.798;2022-10-12T04:18:56;75786.59;;;-140.16;100.00
15442;BME280;7821;48.818;9.798;2022-10-12T04:21:23;75780.69;;;-140.16;100.00
15442;BME280;7821;48.818;9.798;2022-10-12T04:23:51;75776.72;;;-140.16;100.00
15442;BME280;7821;48.818;9.798;2022-10-12T04:26:17;75776.72;;;-140.16;100.00
15442;BME280;7821;48.818;9.798;2022-10-12T04:28:43;75772.78;;;-140.16;100.00
15442;BME280;7821;48.818;9.798;2022-10-12T04:31:10;75759.00;;;-140.16;100.00
15442;BME280;7821;48.818;9.798;2022-10-12T04:33:36;75759.00;;;-140.16;100.00
15442;BME280;7821;48.818;9.798;2022-10-12T04:36:03;75747.16;;;-140.16;100.00
15442;BME280;7821;48.818;9.798;2022-10-12T04:38:29;75743.22;;;-140.16;100.00
15442;BME280;7821;48.818;9.798;2022-10-12T04:40:56;75753.06;;;-140.16;100.00
15442;BME280;7821;48.818;9.798;2022-10-12T04:43:22;75764.91;;;-140.16;100.00
15442;BME280;7821;48.818;9.798;2022-10-12T04:45:53;75768.84;;;-140.16;100.00
15442;BME280;7821;48.818;9.798;2022-10-12T04:48:20;75774.75;;;-140.16;100.00
15442;BME280;7821;48.818;9.798;2022-10-12T04:50:46;75776.72;;;-140.16;100.00
15442;BME280;7821;48.818;9.798;2022-10-12T04:53:12;75768.84;;;-140.16;100.00
15442;BME280;7821;48.818;9.798;2022-10-12T04:55:39;75780.69;;;-140.16;100.00
15442;BME280;7821;48.818;9.798;2022-10-12T04:58:06;75790.53;;;-140.16;100.00
15442;BME280;7821;48.818;9.798;2022-10-12T05:00:32;75796.44;;;-140.16;100.00
15442;BME280;7821;48.818;9.798;2022-10-12T05:02:59;75794.47;;;-140.16;100.00
15442;BME280;7821;48.818;9.798;2022-10-12T05:05:26;75798.44;;;-140.16;100.00
15442;BME280;7821;48.818;9.798;2022-10-12T05:07:52;75802.38;;;-140.16;100.00
15442;BME280;7821;48.818;9.798;2022-10-12T05:10:19;75806.31;;;-140.16;100.00
15442;BME280;7821;48.818;9.798;2022-10-12T05:12:45;75808.28;;;-140.16;100.00
15442;BME280;7821;48.818;9.798;2022-10-12T05:15:11;75816.16;;;-140.16;100.00
15442;BME280;7821;48.818;9.798;2022-10-12T05:17:38;75824.06;;;-140.16;100.00
15442;BME280;7821;48.818;9.798;2022-10-12T05:20:05;75824.06;;;-140.16;100.00
15442;BME280;7821;48.818;9.798;2022-10-12T05:22:32;75826.03;;;-140.16;100.00
15442;BME280;7821;48.818;9.798;2022-10-12T05:24:59;75837.88;;;-140.16;100.00
15442;BME280;7821;48.818;9.798;2022-10-12T05:27:25;75841.81;;;-140.16;100.00
15442;BME280;7821;48.818;9.798;2022-10-12T05:29:51;75855.59;;;-140.16;100.00
15442;BME280;7821;48.818;9.798;2022-10-12T05:32:18;75859.56;;;-140.16;100.00
15442;BME280;7821;48.818;9.798;2022-10-12T05:34:44;75867.44;;;-140.16;100.00
15442;BME280;7821;48.818;9.798;2022-10-12T05:37:11;75867.44;;;-140.16;100.00
15442;BME280;7821;48.818;9.798;2022-10-12T05:39:38;75865.47;;;-140.16;100.00
15442;BME280;7821;48.818;9.798;2022-10-12T05:42:04;75863.50;;;-140.16;100.00
15442;BME280;7821;48.818;9.798;2022-10-12T05:44:31;75855.59;;;-140.16;100.00
15442;BME280;7821;48.818;9.798;2022-10-12T05:46:58;75847.72;;;-140.16;100.00
15442;BME280;7821;48.818;9.798;2022-10-12T05:49:24;75833.91;;;-140.16;100.00
15442;BME280;7821;48.818;9.798;2022-10-12T05:51:50;75828.00;;;-140.16;100.00
15442;BME280;7821;48.818;9.798;2022-10-12T05:54:17;75824.06;;;-140.16;100.00
15442;BME280;7821;48.818;9.798;2022-10-12T05:56:44;75824.06;;;-140.16;100.00
15442;BME280;7821;48.818;9.798;2022-10-12T05:59:10;75810.25;;;-140.16;100.00
15442;BME280;7821;48.818;9.798;2022-10-12T06:01:37;75804.34;;;-140.16;100.00
15442;BME280;7821;48.818;9.798;2022-10-12T06:04:03;75796.44;;;-140.16;100.00
15442;BME280;7821;48.818;9.798;2022-10-12T06:06:30;75798.44;;;-140.16;100.00
15442;BME280;7821;48.818;9.798;2022-10-12T06:08:56;75790.53;;;-140.16;100.00
15442;BME280;7821;48.818;9.798;2022-10-12T06:11:23;75786.59;;;-140.16;100.00
15442;BME280;7821;48.818;9.798;2022-10-12T06:13:49;75776.72;;;-140.16;100.00
15442;BME280;7821;48.818;9.798;2022-10-12T06:16:16;75762.94;;;-140.16;100.00
15442;BME280;7821;48.818;9.798;2022-10-12T06:18:43;75759.00;;;-140.16;100.00
15442;BME280;7821;48.818;9.798;2022-10-12T06:21:09;75757.00;;;-140.16;100.00
15442;BME280;7821;48.818;9.798;2022-10-12T06:23:56;75751.09;;;-140.16;100.00
15442;BME280;7821;48.818;9.798;2022-10-12T06:26:22;75743.22;;;-140.16;100.00
15442;BME280;7821;48.818;9.798;2022-10-12T06:28:50;75741.25;;;-140.16;100.00
15442;BME280;7821;48.818;9.798;2022-10-12T06:31:17;75731.38;;;-140.16;100.00
15442;BME280;7821;48.818;9.798;2022-10-12T06:33:43;75729.41;;;-140.16;100.00
15442;BME280;7821;48.818;9.798;2022-10-12T06:36:10;75723.50;;;-140.16;100.00
15442;BME280;7821;48.818;9.798;2022-10-12T06:38:36;75715.59;;;-140.16;100.00
15442;BME280;7821;48.818;9.798;2022-10-12T06:41:02;75703.78;;;-140.16;100.00
15442;BME280;7821;48.818;9.798;2022-10-12T06:43:29;75701.81;;;-140.16;100.00
15442;BME280;7821;48.818;9.798;2022-10-12T06:45:59;75688.00;;;-140.16;100.00
15442;BME280;7821;48.818;9.798;2022-10-12T06:48:28;75682.09;;;-140.16;100.00
15442;BME280;7821;48.818;9.798;2022-10-12T06:50:54;75670.25;;;-140.16;100.00
15442;BME280;7821;48.818;9.798;2022-10-12T06:53:21;75656.44;;;-140.16;100.00
15442;BME280;7821;48.818;9.798;2022-10-12T06:55:48;75656.44;;;-140.16;100.00
15442;BME280;7821;48.818;9.798;2022-10-12T06:58:14;75646.59;;;-140.16;100.00
15442;BME280;7821;48.818;9.798;2022-10-12T07:00:41;75640.69;;;-140.16;100.00
15442;BME280;7821;48.818;9.798;2022-10-12T07:03:10;75636.72;;;-140.16;100.00
15442;BME280;7821;48.818;9.798;2022-10-12T07:05:37;75634.75;;;-140.16;100.00
15442;BME280;7821;48.818;9.798;2022-10-12T07:08:04;75622.94;;;-140.16;100.00
15442;BME280;7821;48.818;9.798;2022-10-12T07:10:31;75605.19;;;-140.16;100.00
15442;BME280;7821;48.818;9.798;2022-10-12T07:12:58;75597.28;;;-140.16;100.00
15442;BME280;7821;48.818;9.798;2022-10-12T07:15:24;75591.38;;;-140.16;100.00
15442;BME280;7821;48.818;9.798;2022-10-12T07:17:51;75585.47;;;-140.16;100.00
15442;BME280;7821;48.818;9.798;2022-10-12T07:20:17;75565.75;;;-140.16;100.00
15442;BME280;7821;48.818;9.798;2022-10-12T07:22:44;75549.97;;;-140.16;100.00
15442;BME280;7821;48.818;9.798;2022-10-12T07:25:10;75526.31;;;-140.16;100.00
15442;BME280;7821;48.818;9.798;2022-10-12T07:27:36;75504.63;;;-140.16;100.00
15442;BME280;7821;48.818;9.798;2022-10-12T07:30:03;75492.78;;;-140.16;100.00
15442;BME280;7821;48.818;9.798;2022-10-12T07:32:31;75477.00;;;-140.16;100.00
15442;BME280;7821;48.818;9.798;2022-10-12T07:34:58;75467.16;;;-140.16;100.00
15442;BME280;7821;48.818;9.798;2022-10-12T07:37:24;75453.34;;;-140.16;100.00
15442;BME280;7821;48.818;9.798;2022-10-12T07:39:51;75441.53;;;-140.16;100.00
15442;BME280;7821;48.818;9.798;2022-10-12T07:42:22;75427.72;;;-140.16;100.00
15442;BME280;7821;48.818;9.798;2022-10-12T07:44:53;75417.88;;;-140.16;100.00
15442;BME280;7821;48.818;9.798;2022-10-12T07:47:20;75409.97;;;-140.16;100.00
15442;BME280;7821;48.818;9.798;2022-10-12T07:49:46;75406.03;;;-140.16;100.00
15442;BME280;7821;48.818;9.798;2022-10-12T07:52:12;75402.09;;;-140.16;99.05
15442;BME280;7821;48.818;9.798;2022-10-12T07:54:39;75392.22;;;-140.16;98.67
15442;BME280;7821;48.818;9.798;2022-10-12T07:57:05;75406.03;;;-140.16;97.99
15442;BME280;7821;48.818;9.798;2022-10-12T07:59:32;75402.09;;;-140.16;98.13
15442;BME280;7821;48.818;9.798;2022-10-12T08:01:58;75439.56;;;-140.16;96.50
15442;BME280;7821;48.818;9.798;2022-10-12T08:04:25;75449.41;;;-140.16;99.46
15442;BME280;7821;48.818;9.798;2022-10-12T08:06:51;75449.41;;;-140.16;100.00
15442;BME280;7821;48.818;9.798;2022-10-12T08:09:18;75437.59;;;-140.16;99.68
15442;BME280;7821;48.818;9.798;2022-10-12T08:11:44;75415.88;;;-140.16;98.42
15442;BME280;7821;48.818;9.798;2022-10-12T08:14:11;75384.34;;;-140.16;97.10
15442;BME280;7821;48.818;9.798;2022-10-12T08:16:38;75362.66;;;-140.16;95.25
15442;BME280;7821;48.818;9.798;2022-10-12T08:19:05;75354.78;;;-140.16;92.35
15442;BME280;7821;48.818;9.798;2022-10-12T08:21:31;75344.91;;;-140.16;92.01
15442;BME280;7821;48.818;9.798;2022-10-12T08:23:58;75335.06;;;-140.16;91.92
15442;BME280;7821;48.818;9.798;2022-10-12T08:26:25;75331.09;;;-140.16;92.19
15442;BME280;7821;48.818;9.798;2022-10-12T08:28:52;75307.44;;;-140.16;91.52
15442;BME280;7821;48.818;9.798;2022-10-12T08:31:19;75323.22;;;-140.16;88.70
15442;BME280;7821;48.818;9.798;2022-10-12T08:33:45;75295.63;;;-140.16;89.13
15442;BME280;7821;48.818;9.798;2022-10-12T08:36:12;75268.03;;;-140.16;89.24
15442;BME280;7821;48.818;9.798;2022-10-12T08:38:39;75248.31;;;-140.16;88.14
15442;BME280;7821;48.818;9.798;2022-10-12T08:41:27;75240.41;;;-140.16;87.51
15442;BME280;7821;48.818;9.798;2022-10-12T08:46:26;75248.31;;;-140.16;85.31
15442;BME280;7821;48.818;9.798;2022-10-12T08:51:25;75268.03;;;-140.16;84.17
15442;BME280;7821;48.818;9.798;2022-10-12T08:56:23;75234.50;;;-140.16;81.32
15442;BME280;7821;48.818;9.798;2022-10-12T08:58:51;75200.97;;;-140.16;80.58
15442;BME280;7821;48.818;9.798;2022-10-12T09:06:46;75161.56;;;-140.16;75.62
15442;BME280;7821;48.818;9.798;2022-10-12T09:12:07;75122.13;;;-140.16;74.44
15442;BME280;7821;48.818;9.798;2022-10-12T09:14:36;75118.19;;;-140.16;75.41
15442;BME280;7821;48.818;9.798;2022-10-12T09:17:04;75102.41;;;-140.16;75.75
15442;BME280;7821;48.818;9.798;2022-10-12T09:19:37;75110.28;;;-140.16;74.14
15442;BME280;7821;48.818;9.798;2022-10-12T09:22:08;75124.09;;;-140.16;73.39
15442;BME280;7821;48.818;9.798;2022-10-12T09:24:38;75092.53;;;-140.16;73.24
15442;BME280;7821;48.818;9.798;2022-10-12T09:27:10;75072.81;;;-140.16;73.70
15442;BME280;7821;48.818;9.798;2022-10-12T09:29:40;75072.81;;;-140.16;71.64
15442;BME280;7821;48.818;9.798;2022-10-12T09:34:48;75055.09;;;-140.16;72.20
15442;BME280;7821;48.818;9.798;2022-10-12T09:37:19;75062.97;;;-140.16;70.02
15442;BME280;7821;48.818;9.798;2022-10-12T09:39:46;75086.63;;;-140.16;70.15
15442;BME280;7821;48.818;9.798;2022-10-12T09:42:13;75078.75;;;-140.16;72.64
15442;BME280;7821;48.818;9.798;2022-10-12T09:44:41;75076.78;;;-140.16;70.27
15442;BME280;7821;48.818;9.798;2022-10-12T09:49:53;75064.94;;;-140.16;68.82
15442;BME280;7821;48.818;9.798;2022-10-12T09:52:25;75053.13;;;-140.16;68.36
15442;BME280;7821;48.818;9.798;2022-10-12T09:54:52;75053.13;;;-140.16;69.87
15442;BME280;7821;48.818;9.798;2022-10-12T09:57:21;75070.84;;;-140.16;70.37
15442;BME280;7821;48.818;9.798;2022-10-12T09:59:48;75098.47;;;-140.16;70.41
15442;BME280;7821;48.818;9.798;2022-10-12T10:02:16;75126.06;;;-140.16;71.99
15442;BME280;7821;48.818;9.798;2022-10-12T10:04:44;75185.22;;;-140.16;74.55
15442;BME280;7821;48.818;9.798;2022-10-12T10:09:48;75218.72;;;-140.16;77.28
15442;BME280;7821;48.818;9.798;2022-10-12T10:12:28;75224.63;;;-140.16;80.25
15442;BME280;7821;48.818;9.798;2022-10-12T10:14:55;75226.63;;;-140.16;78.23
15442;BME280;7821;48.818;9.798;2022-10-12T10:17:26;75240.41;;;-140.16;78.01
15442;BME280;7821;48.818;9.798;2022-10-12T10:19:54;75268.03;;;-140.16;81.93
15442;BME280;7821;48.818;9.798;2022-10-12T10:22:21;75262.09;;;-140.16;81.41
15442;BME280;7821;48.818;9.798;2022-10-12T10:24:49;75240.41;;;-140.16;80.67
15442;BME280;7821;48.818;9.798;2022-10-12T10:27:51;75236.47;;;-140.16;79.84
15442;BME280;7821;48.818;9.798;2022-10-12T10:30:18;75216.75;;;-140.16;79.49
15442;BME280;7821;48.818;9.798;2022-10-12T10:33:06;75224.63;;;-140.16;77.68
15442;BME280;7821;48.818;9.798;2022-10-12T10:35:33;75218.72;;;-140.16;79.46
15442;BME280;7821;48.818;9.798;2022-10-12T10:38:00;75224.63;;;-140.16;78.79
15442;BME280;7821;48.818;9.798;2022-10-12T10:40:29;75216.75;;;-140.16;77.13
15442;BME280;7821;48.818;9.798;2022-10-12T10:42:57;75197.03;;;-140.16;76.77
15442;BME280;7821;48.818;9.798;2022-10-12T10:45:36;75183.25;;;-140.16;77.26
15442;BME280;7821;48.818;9.798;2022-10-12T10:48:09;75181.25;;;-140.16;76.11
15442;BME280;7821;48.818;9.798;2022-10-12T10:50:42;75212.81;;;-140.16;75.90
15442;BME280;7821;48.818;9.798;2022-10-12T10:53:13;75200.97;;;-140.16;76.36
15442;BME280;7821;48.818;9.798;2022-10-12T10:58:26;75216.75;;;-140.16;74.89
15442;BME280;7821;48.818;9.798;2022-10-12T11:00:57;75181.25;;;-140.16;74.21
15442;BME280;7821;48.818;9.798;2022-10-12T11:03:30;75169.44;;;-140.16;73.30
15442;BME280;7821;48.818;9.798;2022-10-12T11:06:14;75197.03;;;-140.16;73.21
15442;BME280;7821;48.818;9.798;2022-10-12T11:08:46;75199.00;;;-140.16;76.03
15442;BME280;7821;48.818;9.798;2022-10-12T11:11:16;75195.06;;;-140.16;74.41
15442;BME280;7821;48.818;9.798;2022-10-12T11:13:47;75185.22;;;-140.16;74.15
15442;BME280;7821;48.818;9.798;2022-10-12T11:16:33;75199.00;;;-140.16;74.91
15442;BME280;7821;48.818;9.798;2022-10-12T11:19:04;75151.69;;;-140.16;74.40
15442;BME280;7821;48.818;9.798;2022-10-12T11:21:38;75110.28;;;-140.16;72.60
15442;BME280;7821;48.818;9.798;2022-10-12T11:26:39;75055.09;;;-140.16;68.76
15442;BME280;7821;48.818;9.798;2022-10-12T11:29:07;75027.47;;;-140.16;66.85
15442;BME280;7821;48.818;9.798;2022-10-12T11:31:38;75011.72;;;-140.16;66.33
15442;BME280;7821;48.818;9.798;2022-10-12T11:34:08;74995.94;;;-140.16;66.74
15442;BME280;7821;48.818;9.798;2022-10-12T11:36:40;75047.19;;;-140.16;65.52
15442;BME280;7821;48.818;9.798;2022-10-12T11:39:31;75130.00;;;-140.16;67.36
15442;BME280;7821;48.818;9.798;2022-10-12T11:42:00;75096.50;;;-140.16;68.69
15442;BME280;7821;48.818;9.798;2022-10-12T11:44:46;75094.50;;;-140.16;67.43
15442;BME280;7821;48.818;9.798;2022-10-12T11:52:29;75031.44;;;-140.16;67.57
15442;BME280;7821;48.818;9.798;2022-10-12T11:57:35;75039.31;;;-140.16;66.22
15442;BME280;7821;48.818;9.798;2022-10-12T12:00:10;75021.56;;;-140.16;66.79
15442;BME280;7821;48.818;9.798;2022-10-12T12:02:43;74992.00;;;-140.16;66.41
15442;BME280;7821;48.818;9.798;2022-10-12T12:05:11;74964.41;;;-140.16;64.94
15442;BME280;7821;48.818;9.798;2022-10-12T12:15:37;75086.63;;;-140.16;67.05
15442;BME280;7821;48.818;9.798;2022-10-12T12:18:11;75053.13;;;-140.16;66.31
15442;BME280;7821;48.818;9.798;2022-10-12T12:23:19;74999.88;;;-140.16;63.52
15442;BME280;7821;48.818;9.798;2022-10-12T12:25:46;74980.16;;;-140.16;65.11
15442;BME280;7821;48.818;9.798;2022-10-12T12:28:17;75003.81;;;-140.16;61.91
15442;BME280;7821;48.818;9.798;2022-10-12T12:30:54;75061.00;;;-140.16;64.10
15442;BME280;7821;48.818;9.798;2022-10-12T12:33:32;75062.97;;;-140.16;67.52
15442;BME280;7821;48.818;9.798;2022-10-12T12:36:02;75059.03;;;-140.16;65.67
15442;BME280;7821;48.818;9.798;2022-10-12T12:38:33;75074.81;;;-140.16;65.72
15442;BME280;7821;48.818;9.798;2022-10-12T12:41:04;75082.69;;;-140.16;67.84
15442;BME280;7821;48.818;9.798;2022-10-12T12:45:59;75031.44;;;-140.16;68.50
15442;BME280;7821;48.818;9.798;2022-10-12T12:48:54;74993.97;;;-140.16;66.97
15442;BME280;7821;48.818;9.798;2022-10-12T12:51:23;74952.56;;;-140.16;63.49
15442;BME280;7821;48.818;9.798;2022-10-12T13:07:15;74737.69;;;-140.16;54.56
15442;BME280;7821;48.818;9.798;2022-10-12T13:12:23;74773.16;;;-140.16;56.34
15442;BME280;7821;48.818;9.798;2022-10-12T13:17:35;74848.06;;;-140.16;58.13
15442;BME280;7821;48.818;9.798;2022-10-12T13:22:40;74826.41;;;-140.16;59.11
15442;BME280;7821;48.818;9.798;2022-10-12T13:25:07;74844.13;;;-140.16;58.10
15442;BME280;7821;48.818;9.798;2022-10-12T13:27:49;74834.28;;;-140.16;58.53
15442;BME280;7821;48.818;9.798;2022-10-12T13:32:57;74842.16;;;-140.16;59.48
15442;BME280;7821;48.818;9.798;2022-10-12T13:35:35;74788.94;;;-140.16;57.22
15442;BME280;7821;48.818;9.798;2022-10-12T13:38:13;74769.22;;;-140.16;56.13
15442;BME280;7821;48.818;9.798;2022-10-12T13:40:53;74836.25;;;-140.16;55.16
15442;BME280;7821;48.818;9.798;2022-10-12T13:43:28;74824.41;;;-140.16;55.89
15442;BME280;7821;48.818;9.798;2022-10-12T13:45:56;74802.75;;;-140.16;55.25
15442;BME280;7821;48.818;9.798;2022-10-12T13:48:23;74763.31;;;-140.16;55.44
15442;BME280;7821;48.818;9.798;2022-10-12T13:51:23;74779.06;;;-140.16;56.40
15442;BME280;7821;48.818;9.798;2022-10-12T13:53:50;74755.41;;;-140.16;55.90
15442;BME280;7821;48.818;9.798;2022-10-12T13:56:17;74727.81;;;-140.16;56.12
15442;BME280;7821;48.818;9.798;2022-10-12T13:58:44;74735.72;;;-140.16;54.84
15442;BME280;7821;48.818;9.798;2022-10-12T14:01:12;74712.06;;;-140.16;53.61
15442;BME280;7821;48.818;9.798;2022-10-12T14:03:40;74741.63;;;-140.16;53.08
15442;BME280;7821;48.818;9.798;2022-10-12T14:06:27;74759.38;;;-140.16;55.68
15442;BME280;7821;48.818;9.798;2022-10-12T14:08:58;74773.16;;;-140.16;57.03
15442;BME280;7821;48.818;9.798;2022-10-12T14:11:27;74800.75;;;-140.16;55.60
15442;BME280;7821;48.818;9.798;2022-10-12T14:13:53;74818.50;;;-140.16;55.95
15442;BME280;7821;48.818;9.798;2022-10-12T14:16:20;74812.59;;;-140.16;56.66
15442;BME280;7821;48.818;9.798;2022-10-12T14:18:47;74798.78;;;-140.16;57.58
15442;BME280;7821;48.818;9.798;2022-10-12T14:24:26;74859.91;;;-140.16;59.75
15442;BME280;7821;48.818;9.798;2022-10-12T14:26:38;74850.06;;;-140.16;60.28
15442;BME280;7821;48.818;9.798;2022-10-12T14:29:27;74857.94;;;-140.16;59.21
15442;BME280;7821;48.818;9.798;2022-10-12T14:31:57;74854.00;;;-140.16;58.95